Pagrindinis puslapis
METAR-TAF:

METAR-TAF

Oro uostai :

Cruzeiro do Sul, Akrė, Brazilija

platuma: 07-38S, ilguma: 072-40W, Aukštis: 170 m

Dabartinis oras

Ataskaita buvo paskelbta 1 valandą ir 8 minutes, ne 21:00 UTC
Vėjas 3 kt iš Vakarų
Temperatūra 25°C
Drėgmė 100%
Slėgis 1008 hPa
Matomumas 10 km arba daugiau
Išsisklaidę debesys ne aukštis 3000 ft
Mažai debesys ne aukštis 4000 ft, aukštai iškilę kamuoliniai debesys.
Su prošvaistėmis ne aukštis 10000 ft

METAR: SBCZ 282100Z 27003KT 9999 SCT030 FEW040TCU BKN100 25/25 Q1008

Laikas: 17:08 (22:08 UTC)


TAF: trūkstamas

Orai ataskaitas ir orų prognozės (METAR, TAF).

turimą stotys yra geltonos ir raudonos taškus žemėlapyje.

Perkelti pele per norėdami pamatyti stoties vardą.

Tada spustelėkite, norėdami matyti oro stebėjimo ir prognozės.

Norėdami pakeisti žemėlapį: spustelėkite ant žalios mygtukų su juodo kryžiaus žemyn,; žalią mygtuką su brūkšneliu, jei norite nutolinti; arba žalių rodyklių gretimoms žemėlapius.


METAR-TAF: